Latest Weather Observations for Truscott

IDW60801

Issued at 10:33 pm WST Monday 29 May 2017 (issued every 30 minutes, with the page automatically refreshed every 10 minutes)

About weather observations | Map of weather stations | Latest weather observations for WA | Other Formats
Station Details ID: 001020 Name: TRUSCOTT Lat: -14.09 Lon: 126.39 Height: 51.0 m
Data from the previous 72 hours. | See also: Recent months at Truscott
Date/Time
WST
Temp
°C
App
Temp
°C
Dew
Point
°C
Rel
Hum
%
Delta-T
°C
Wind Press
QNH
hPa
Press
MSL
hPa
Rain since
9am
mm
Dir  Spd
km/h
Gust
km/h
Spd
kts
Gust
kts
29/10:30pm 24.3 23.4 11.3 44 7.3 SE 7 9 4 5 1014.0 - 0.0
29/10:00pm 25.4 24.3 10.8 40 8.2 SE 7 13 4 7 1014.1 - 0.0
29/09:30pm 24.6 24.0 12.2 46 7.1 SE 7 9 4 5 1014.1 - 0.0
29/09:00pm 24.5 24.6 14.0 52 6.2 SSE 6 9 3 5 1014.2 1013.9 0.0
29/08:30pm 24.4 25.0 15.3 57 5.5 SSE 6 7 3 4 1014.2 - 0.0
29/08:00pm 24.2 26.1 15.7 59 5.1 CALM 0 6 0 3 1014.1 - 0.0
29/07:30pm 24.5 26.3 15.4 57 5.5 CALM 0 0 0 0 1013.9 - 0.0
29/07:00pm 26.0 26.4 14.8 50 6.7 E 6 7 3 4 1013.6 - 0.0
29/06:30pm 27.2 26.7 13.9 44 7.9 ENE 9 13 5 7 1013.4 - 0.0
29/06:00pm 27.6 27.0 14.6 45 7.8 ENE 11 19 6 10 1013.0 1012.7 0.0
29/05:30pm 27.9 26.9 14.5 44 8.1 ENE 13 20 7 11 1012.6 - 0.0
29/05:00pm 28.4 26.9 14.3 42 8.5 ENE 15 24 8 13 1012.2 - 0.0
29/04:30pm 29.0 27.3 13.6 38 9.2 ENE 15 24 8 13 1012.0 - 0.0
29/04:00pm 29.6 26.6 12.5 35 10.1 ENE 20 35 11 19 1011.7 - 0.0
29/03:30pm 30.7 27.7 12.1 32 10.9 ENE 19 37 10 20 1011.3 - 0.0
29/03:00pm 31.3 27.7 11.7 30 11.5 ENE 22 35 12 19 1011.3 1011.0 0.0
29/02:30pm 31.7 28.4 11.5 29 11.8 ENE 20 30 11 16 1011.4 - 0.0
29/02:00pm 32.4 29.1 11.0 27 12.4 ENE 19 32 10 17 1011.4 - 0.0
29/01:30pm 32.0 27.8 11.2 28 12.1 ENE 24 39 13 21 1011.5 - 0.0
29/01:00pm 31.9 28.4 12.2 30 11.6 ENE 22 37 12 20 1011.5 - 0.0
29/12:30pm 31.8 28.1 12.6 31 11.4 ENE 24 41 13 22 1011.8 - 0.0
29/12:00pm 32.1 29.5 13.8 33 11.1 ENE 20 33 11 18 1012.1 1011.8 0.0
29/11:30am 31.6 29.8 15.5 37 10.0 E 19 28 10 15 1012.6 - 0.0
29/11:00am 31.0 28.8 15.0 38 9.8 E 20 32 11 17 1013.0 - 0.0
29/10:30am 30.8 28.6 14.4 36 10.0 E 19 32 10 17 1012.9 - 0.0
29/10:00am 30.4 28.3 13.7 36 10.0 E 17 30 9 16 1013.4 - 0.0
29/09:30am 29.2 26.5 11.7 34 10.1 E 17 28 9 15 1013.8 - 0.0
29/09:00am 29.1 26.2 9.8 30 10.8 ESE 15 26 8 14 1014.0 1013.7 0.0
29/08:30am 29.0 26.5 9.7 30 10.8 ESE 13 24 7 13 1013.9 - 0.0
29/08:00am 26.9 25.4 10.6 36 9.2 SSE 9 11 5 6 1013.7 - 0.0
29/07:30am 26.2 24.5 10.0 36 9.0 SE 9 13 5 7 1013.3 - 0.0
29/07:00am 26.1 24.4 9.9 36 9.0 SSE 9 11 5 6 1013.0 - 0.0
29/06:30am 25.2 23.4 9.5 37 8.6 SSE 9 13 5 7 1012.5 - 0.0
29/06:00am 24.5 23.2 10.0 40 8.0 SSE 7 11 4 6 1012.2 1011.9 0.0
29/05:30am 24.2 23.1 10.5 42 7.6 S 7 9 4 5 1012.1 - 0.0
29/05:00am 24.1 23.0 10.7 43 7.5 SSE 7 9 4 5 1012.1 - 0.0
29/04:30am 24.8 23.6 10.3 40 8.0 S 7 9 4 5 1012.1 - 0.0
29/04:00am 25.0 23.9 10.8 41 8.0 S 7 9 4 5 1012.0 - 0.0
29/03:30am 25.4 24.3 10.8 40 8.2 S 7 9 4 5 1011.9 - 0.0
29/03:00am 25.2 24.2 10.3 39 8.3 SSE 6 7 3 4 1011.7 1011.4 0.0
29/02:30am 25.5 24.6 10.5 39 8.4 S 6 9 3 5 1011.9 - 0.0
29/02:00am 25.4 24.2 10.4 39 8.4 S 7 9 4 5 1012.0 - 0.0
29/01:30am 25.0 23.9 10.8 41 8.0 S 7 9 4 5 1012.2 - 0.0
29/01:00am 25.2 23.9 9.9 38 8.4 SSW 7 9 4 5 1012.5 - 0.0
29/12:30am 25.1 23.7 9.4 37 8.6 SSW 7 7 4 4 1012.6 - 0.0
29/12:00am 24.0 24.5 11.7 46 7.0 CALM 0 0 0 0 1012.5 1012.2 0.0
 
Date/Time
WST
Temp
°C
App
Temp
°C
Dew
Point
°C
Rel
Hum
%
Delta-T
°C
Wind Press
QNH
hPa
Press
MSL
hPa
Rain since
9am
mm
Dir  Spd
km/h
Gust
km/h
Spd
kts
Gust
kts
28/11:30pm 24.3 24.2 10.9 43 7.5 SSW 2 7 1 4 1012.5 - 0.0
28/11:00pm 24.1 23.7 12.4 48 6.7 SSW 6 7 3 4 1012.8 - 0.0
28/10:30pm 24.2 24.9 12.2 47 6.9 CALM 0 0 0 0 1012.9 - 0.0
28/10:00pm 24.6 24.7 14.4 53 6.1 S 7 7 4 4 1013.0 - 0.0
28/09:30pm 24.2 24.7 15.1 56 5.5 SSE 6 7 3 4 1013.1 - 0.0
28/09:00pm 24.7 25.4 15.6 57 5.5 E 6 7 3 4 1013.1 1012.8 0.0
28/08:30pm 25.0 25.8 14.8 53 6.1 E 4 7 2 4 1013.2 - 0.0
28/08:00pm 25.3 26.7 14.4 50 6.5 CALM 0 0 0 0 1013.2 - 0.0
28/07:30pm 25.9 27.1 13.7 47 7.2 CALM 0 0 0 0 1013.0 - 0.0
28/07:00pm 27.3 27.0 13.3 42 8.3 E 7 11 4 6 1012.8 - 0.0
28/06:30pm 27.1 27.4 15.1 47 7.3 E 7 9 4 5 1012.4 - 0.0
28/06:00pm 27.8 27.5 14.4 43 8.1 E 9 11 5 6 1012.1 1011.8 0.0
28/05:30pm 28.2 27.4 14.1 42 8.5 ENE 11 15 6 8 1011.7 - 0.0
28/05:00pm 28.5 27.8 14.3 41 8.6 ENE 11 17 6 9 1011.3 - 0.0
28/04:30pm 29.0 27.8 14.0 39 9.0 ENE 13 22 7 12 1011.1 - 0.0
28/04:00pm 29.6 28.2 13.4 37 9.7 ENE 13 22 7 12 1010.8 - 0.0
28/03:30pm 30.1 28.3 13.4 36 10.0 ENE 15 24 8 13 1010.8 - 0.0
28/03:00pm 30.8 28.4 12.7 33 10.7 ENE 17 26 9 14 1010.8 1010.5 0.0
28/02:30pm 31.1 29.6 14.3 36 10.2 ENE 15 30 8 16 1010.8 - 0.0
28/02:00pm 31.4 29.1 14.1 35 10.5 ENE 19 30 10 16 1010.7 - 0.0
28/01:30pm 31.6 29.3 12.9 32 11.2 ENE 17 28 9 15 1010.8 - 0.0
28/01:00pm 31.3 28.5 12.6 31 11.1 E 19 32 10 17 1011.0 - 0.0
28/12:30pm 31.3 29.0 14.0 35 10.5 E 19 32 10 17 1011.2 - 0.0
28/12:00pm 31.8 29.1 13.5 32 11.0 E 20 28 11 15 1011.3 1011.0 0.0
28/11:30am 31.0 28.4 13.7 34 10.4 E 20 33 11 18 1012.0 - 0.0
28/11:00am 30.4 28.2 13.2 35 10.3 E 17 30 9 16 1012.5 - 0.0
28/10:30am 30.5 28.1 13.7 35 10.1 E 19 30 10 16 1012.8 - 0.0
28/10:00am 29.6 27.1 13.4 37 9.7 ESE 19 30 10 16 1013.1 - 0.0
28/09:30am 29.0 26.5 12.4 36 9.7 ESE 17 28 9 15 1013.2 - 0.0
28/09:00am 28.6 26.1 11.2 34 10.0 E 15 32 8 17 1013.5 1013.2 0.0
28/08:30am 27.6 24.9 10.3 34 9.7 ESE 15 24 8 13 1013.5 - 0.0
28/08:00am 27.1 25.0 11.2 37 9.1 ESE 13 22 7 12 1013.3 - 0.0
28/07:30am 26.0 24.2 11.0 39 8.5 ESE 11 17 6 9 1013.1 - 0.0
28/07:00am 25.3 24.3 11.1 41 8.0 SE 7 13 4 7 1012.8 - 0.0
28/06:30am 25.1 23.6 10.6 40 8.1 SE 9 15 5 8 1012.5 - 0.0
28/06:00am 24.9 23.5 10.8 41 7.9 ESE 9 15 5 8 1012.1 1011.8 0.0
28/05:30am 24.4 23.0 11.0 43 7.5 SE 9 13 5 7 1011.7 - 0.0
28/05:00am 23.9 22.6 11.2 44 7.1 SSE 9 11 5 6 1011.5 - 0.0
28/04:30am 22.8 21.7 11.8 50 6.2 SSE 9 13 5 7 1011.3 - 0.0
28/04:00am 20.8 20.2 12.2 58 4.8 SSE 7 7 4 4 1011.3 - 0.0
28/03:30am 20.6 20.2 12.3 59 4.7 SSE 6 7 3 4 1011.3 - 0.0
28/03:00am 21.1 20.6 12.0 56 5.1 S 6 7 3 4 1011.4 1011.1 0.0
28/02:30am 21.2 20.7 12.1 56 5.1 S 6 7 3 4 1011.4 - 0.0
28/02:00am 21.8 21.2 12.4 55 5.3 SSE 7 7 4 4 1011.7 - 0.0
28/01:30am 21.7 21.3 13.1 58 4.9 SE 7 9 4 5 1011.9 - 0.0
28/01:00am 21.4 21.3 13.3 60 4.7 SE 6 7 3 4 1012.1 - 0.0
28/12:30am 21.6 22.1 14.0 62 4.4 E 4 6 2 3 1012.2 - 0.0
28/12:00am 21.8 22.1 14.4 63 4.3 E 6 7 3 4 1012.4 1012.1 0.0
 
Date/Time
WST
Temp
°C
App
Temp
°C
Dew
Point
°C
Rel
Hum
%
Delta-T
°C
Wind Press
QNH
hPa
Press
MSL
hPa
Rain since
9am
mm
Dir  Spd
km/h
Gust
km/h
Spd
kts
Gust
kts
27/11:30pm 21.9 22.1 14.8 64 4.2 E 7 9 4 5 1012.6 - 0.0
27/11:00pm 22.3 22.9 15.4 65 4.1 SE 6 7 3 4 1012.7 - 0.0
27/10:30pm 22.7 23.5 15.8 65 4.2 ESE 6 7 3 4 1012.9 - 0.0
27/10:00pm 23.1 23.7 15.7 63 4.5 SE 7 9 4 5 1012.9 - 0.0
27/09:30pm 23.3 24.5 17.3 69 3.7 SSE 7 9 4 5 1013.2 - 0.0
27/09:00pm 23.4 24.9 17.6 70 3.6 SE 6 7 3 4 1013.3 1013.0 0.0
27/08:30pm 24.0 25.4 17.7 68 3.9 E 7 9 4 5 1013.2 - 0.0
27/08:00pm 24.5 26.2 18.0 67 4.1 ESE 6 7 3 4 1013.1 - 0.0
27/07:30pm 25.1 26.4 17.6 63 4.7 E 7 9 4 5 1012.7 - 0.0
27/07:00pm 26.2 27.4 17.3 58 5.6 E 7 11 4 6 1012.4 - 0.0
27/06:30pm 27.1 27.9 17.3 55 6.2 ENE 9 13 5 7 1012.2 - 0.0
27/06:00pm 27.8 28.0 17.6 53 6.5 ENE 13 20 7 11 1011.9 1011.6 0.0
27/05:30pm 28.1 28.3 18.5 56 6.2 ENE 15 20 8 11 1011.6 - 0.0
27/05:00pm 28.6 28.2 18.1 53 6.7 ENE 17 26 9 14 1011.2 - 0.0
27/04:30pm 29.4 29.6 18.5 52 7.0 ENE 15 26 8 14 1010.9 - 0.0
27/04:00pm 30.2 30.0 18.6 49 7.5 ENE 17 30 9 16 1010.6 - 0.0
27/03:30pm 30.3 30.3 19.0 50 7.3 ENE 17 24 9 13 1010.4 - 0.0
27/03:00pm 30.4 30.0 18.8 50 7.5 ENE 19 28 10 15 1010.3 1010.0 0.0
27/02:30pm 31.1 30.7 18.8 48 8.0 ENE 19 33 10 18 1010.3 - 0.0
27/02:00pm 32.1 32.0 17.9 42 9.1 ENE 15 24 8 13 1010.2 - 0.0
27/01:30pm 32.3 31.5 17.0 40 9.7 ENE 17 28 9 15 1010.5 - 0.0
27/01:00pm 32.1 30.1 15.6 37 10.3 ENE 20 30 11 16 1010.6 - 0.0
27/12:30pm 32.3 31.0 15.7 36 10.4 E 17 30 9 16 1011.1 - 0.0
27/12:00pm 31.8 30.2 14.9 36 10.4 ENE 17 28 9 15 1011.4 1011.1 0.0
27/11:30am 31.1 28.7 14.3 36 10.2 E 20 35 11 19 1011.9 - 0.0
27/11:00am 31.2 28.6 13.9 35 10.5 E 20 30 11 16 1012.1 - 0.0
27/10:30am 30.6 28.3 13.0 34 10.5 E 17 26 9 14 1012.6 - 0.0
27/10:00am 30.5 28.0 12.4 33 10.7 E 17 30 9 16 1012.8 - 0.0
27/09:30am 30.0 27.2 11.5 32 10.7 E 17 28 9 15 1012.9 - 0.0
27/09:00am 29.6 27.4 12.1 34 10.2 ESE 15 24 8 13 1013.0 1012.7 0.0
27/08:30am 28.2 26.6 11.7 36 9.5 ESE 11 17 6 9 1013.2 - 0.0
27/08:00am 26.8 25.4 12.1 40 8.5 ESE 11 17 6 9 1013.2 - 0.0
27/07:30am 25.7 24.9 12.9 45 7.5 E 9 13 5 7 1013.2 - 0.0
27/07:00am 24.8 24.1 12.1 45 7.3 E 7 13 4 7 1012.9 - 0.0
27/06:30am 24.6 23.1 11.9 45 7.2 E 11 15 6 8 1012.6 - 0.0
27/06:00am 21.1 20.5 12.3 57 5.0 NE 7 11 4 6 1012.4 1012.1 0.0
27/05:30am 23.8 23.0 11.8 47 6.8 SE 7 11 4 6 1011.8 - 0.0
27/05:00am 23.9 22.9 12.2 48 6.7 SSE 9 11 5 6 1011.6 - 0.0
27/04:30am 23.9 22.9 12.2 48 6.7 SSE 9 13 5 7 1011.4 - 0.0
27/04:00am 24.0 23.0 12.3 48 6.7 SSE 9 13 5 7 1011.4 - 0.0
27/03:30am 23.9 23.3 12.2 48 6.7 SSE 7 9 4 5 1011.4 - 0.0
27/03:00am 24.0 23.1 12.6 49 6.6 SSE 9 11 5 6 1011.3 1011.0 0.0
27/02:30am 23.6 23.1 12.6 50 6.3 SSE 7 9 4 5 1011.4 - 0.0
27/02:00am 23.3 22.9 12.9 52 6.0 SSE 7 9 4 5 1011.6 - 0.0
27/01:30am 22.6 22.4 13.1 55 5.5 SSE 6 7 3 4 1012.0 - 0.0
27/01:00am 23.4 23.0 13.0 52 6.0 SE 7 9 4 5 1012.2 - 0.0
27/12:30am 23.7 23.5 13.6 53 5.9 SSE 7 9 4 5 1012.4 - 0.0
27/12:00am 23.4 23.4 14.1 56 5.5 SSE 7 11 4 6 1012.5 1012.2 0.0
 
Date/Time
WST
Temp
°C
App
Temp
°C
Dew
Point
°C
Rel
Hum
%
Delta-T
°C
Wind Press
QNH
hPa
Press
MSL
hPa
Rain since
9am
mm
Dir  Spd
km/h
Gust
km/h
Spd
kts
Gust
kts
26/11:30pm 22.9 23.6 16.0 65 4.2 SE 7 9 4 5 1012.7 - 0.0
26/11:00pm 23.3 24.4 17.1 68 3.8 SE 7 11 4 6 1012.9 - 0.0

Other Formats:

Comma delimited format used in spreadsheet applications
http://www.bom.gov.au/fwo/IDW60801/IDW60801.95101.axf

JavaScript Object Notation format (JSON) in row-major order
http://www.bom.gov.au/fwo/IDW60801/IDW60801.95101.json